createdAt,value
2023-01-19T00:00:14.000Z,95.32
2023-01-19T00:01:14.000Z,95.22
2023-01-19T00:02:14.000Z,95.22
2023-01-19T00:03:14.000Z,95.11
2023-01-19T00:04:14.000Z,94.54
2023-01-19T00:05:14.000Z,94.02
2023-01-19T00:06:14.000Z,93.70
2023-01-19T00:07:14.000Z,93.38
2023-01-19T00:08:14.000Z,93.07
2023-01-19T00:09:14.000Z,92.71
2023-01-19T00:10:14.000Z,92.54
2023-01-19T00:11:14.000Z,92.33
2023-01-19T00:12:14.000Z,92.12
2023-01-19T00:13:14.000Z,92.02
2023-01-19T00:14:14.000Z,91.91
2023-01-19T00:15:14.000Z,91.70
2023-01-19T00:16:15.000Z,91.28
2023-01-19T00:17:15.000Z,91.28
2023-01-19T00:18:15.000Z,91.49
2023-01-19T00:19:15.000Z,91.60
2023-01-19T00:20:15.000Z,91.53
2023-01-19T00:21:15.000Z,91.53
2023-01-19T00:22:15.000Z,91.53
2023-01-19T00:23:15.000Z,91.42
2023-01-19T00:24:15.000Z,91.32
2023-01-19T00:25:15.000Z,91.42
2023-01-19T00:26:15.000Z,91.64
2023-01-19T00:27:15.000Z,91.74
2023-01-19T00:28:15.000Z,91.78
2023-01-19T00:29:15.000Z,91.99
2023-01-19T00:30:15.000Z,92.21
2023-01-19T00:31:15.000Z,92.27
2023-01-19T00:32:15.000Z,92.10
2023-01-19T00:33:15.000Z,91.78
2023-01-19T00:34:15.000Z,91.68
2023-01-19T00:35:15.000Z,91.57
2023-01-19T00:36:15.000Z,91.57
2023-01-19T00:37:15.000Z,91.68
2023-01-19T00:38:15.000Z,91.93
2023-01-19T00:39:15.000Z,91.83
2023-01-19T00:40:16.000Z,91.72
2023-01-19T00:41:16.000Z,91.93
2023-01-19T00:42:16.000Z,92.25
2023-01-19T00:43:16.000Z,92.25
2023-01-19T00:44:16.000Z,92.35
2023-01-19T00:45:16.000Z,92.25
2023-01-19T00:46:16.000Z,92.77
2023-01-19T00:47:16.000Z,92.88
2023-01-19T00:48:16.000Z,92.99
2023-01-19T00:49:16.000Z,93.09
2023-01-19T00:50:16.000Z,93.19
2023-01-19T00:51:16.000Z,93.30
2023-01-19T00:52:16.000Z,93.57
2023-01-19T00:53:16.000Z,93.79
2023-01-19T00:54:16.000Z,93.68
2023-01-19T00:55:16.000Z,93.57
2023-01-19T00:56:16.000Z,93.43
2023-01-19T00:57:16.000Z,93.11
2023-01-19T00:58:16.000Z,92.69
2023-01-19T00:59:16.000Z,92.38
2023-01-19T01:00:16.000Z,92.10
2023-01-19T01:01:16.000Z,91.89
2023-01-19T01:02:16.000Z,91.47
2023-01-19T01:03:16.000Z,91.47
2023-01-19T01:04:16.000Z,91.68
2023-01-19T01:05:17.000Z,91.83
2023-01-19T01:06:17.000Z,92.03
2023-01-19T01:07:17.000Z,92.14
2023-01-19T01:08:17.000Z,92.57
2023-01-19T01:09:17.000Z,92.99
2023-01-19T01:10:17.000Z,93.05
2023-01-19T01:11:17.000Z,92.94
2023-01-19T01:12:17.000Z,92.73
2023-01-19T01:13:17.000Z,92.52
2023-01-19T01:14:17.000Z,92.21
2023-01-19T01:15:17.000Z,92.21
2023-01-19T01:16:17.000Z,92.21
2023-01-19T01:17:17.000Z,92.25
2023-01-19T01:18:17.000Z,92.57
2023-01-19T01:19:17.000Z,92.88
2023-01-19T01:20:17.000Z,92.84
2023-01-19T01:21:17.000Z,92.73
2023-01-19T01:22:17.000Z,92.73
2023-01-19T01:23:17.000Z,92.84
2023-01-19T01:24:17.000Z,92.84
2023-01-19T01:25:17.000Z,92.73
2023-01-19T01:26:17.000Z,92.63
2023-01-19T01:27:17.000Z,92.52
2023-01-19T01:28:18.000Z,92.52
2023-01-19T01:29:18.000Z,92.52
2023-01-19T01:30:18.000Z,92.41
2023-01-19T01:31:18.000Z,92.41
2023-01-19T01:32:18.000Z,92.31
2023-01-19T01:33:18.000Z,92.31
2023-01-19T01:34:18.000Z,92.21
2023-01-19T01:35:18.000Z,92.21
2023-01-19T01:36:18.000Z,92.21
2023-01-19T01:37:18.000Z,92.10
2023-01-19T01:38:18.000Z,92.10
2023-01-19T01:39:18.000Z,92.41
2023-01-19T01:40:18.000Z,92.63
2023-01-19T01:41:18.000Z,92.52
2023-01-19T01:42:18.000Z,92.31
2023-01-19T01:43:18.000Z,92.52
2023-01-19T01:44:18.000Z,92.41
2023-01-19T01:45:18.000Z,92.21
2023-01-19T01:46:18.000Z,91.99
2023-01-19T01:47:18.000Z,91.89
2023-01-19T01:48:18.000Z,91.89
2023-01-19T01:49:18.000Z,91.89
2023-01-19T01:50:19.000Z,91.93
2023-01-19T01:51:19.000Z,91.93
2023-01-19T01:52:19.000Z,92.03
2023-01-19T01:53:19.000Z,92.14
2023-01-19T01:54:19.000Z,92.14
2023-01-19T01:55:19.000Z,91.89
2023-01-19T01:56:19.000Z,91.83
2023-01-19T01:57:19.000Z,91.68
2023-01-19T01:58:19.000Z,91.47
2023-01-19T01:59:19.000Z,91.36
2023-01-19T02:00:19.000Z,91.26
2023-01-19T02:01:19.000Z,91.15
2023-01-19T02:02:19.000Z,91.05
2023-01-19T02:03:19.000Z,90.94
2023-01-19T02:04:19.000Z,90.83
2023-01-19T02:05:19.000Z,90.73
2023-01-19T02:06:19.000Z,90.73
2023-01-19T02:07:19.000Z,90.62
2023-01-19T02:08:19.000Z,90.62
2023-01-19T02:09:19.000Z,90.62
2023-01-19T02:10:19.000Z,90.52
2023-01-19T02:11:19.000Z,90.52
2023-01-19T02:12:19.000Z,90.41
2023-01-19T02:13:20.000Z,90.52
2023-01-19T02:14:20.000Z,90.52
2023-01-19T02:15:20.000Z,90.62
2023-01-19T02:16:20.000Z,90.52
2023-01-19T02:17:20.000Z,90.20
2023-01-19T02:18:20.000Z,90.31
2023-01-19T02:19:20.000Z,89.99
2023-01-19T02:20:20.000Z,89.78
2023-01-19T02:21:20.000Z,89.78
2023-01-19T02:22:20.000Z,89.78
2023-01-19T02:23:20.000Z,89.78
2023-01-19T02:24:20.000Z,89.68
2023-01-19T02:25:20.000Z,89.68
2023-01-19T02:26:20.000Z,89.57
2023-01-19T02:27:20.000Z,89.57
2023-01-19T02:28:20.000Z,89.78
2023-01-19T02:29:20.000Z,89.99
2023-01-19T02:30:20.000Z,89.78
2023-01-19T02:31:20.000Z,90.20
2023-01-19T02:32:20.000Z,90.10
2023-01-19T02:33:20.000Z,89.68
2023-01-19T02:34:20.000Z,89.36
2023-01-19T02:35:20.000Z,89.36
2023-01-19T02:36:20.000Z,89.89
2023-01-19T02:37:20.000Z,89.78
2023-01-19T02:38:20.000Z,89.68
2023-01-19T02:39:20.000Z,89.68
2023-01-19T02:40:21.000Z,89.78
2023-01-19T02:41:21.000Z,89.68
2023-01-19T02:42:21.000Z,89.57
2023-01-19T02:43:21.000Z,89.36
2023-01-19T02:44:21.000Z,89.57
2023-01-19T02:45:21.000Z,89.36
2023-01-19T02:46:21.000Z,89.36
2023-01-19T02:47:21.000Z,89.47
2023-01-19T02:48:21.000Z,89.78
2023-01-19T02:49:21.000Z,89.68
2023-01-19T02:50:21.000Z,89.68
2023-01-19T02:51:21.000Z,89.89
2023-01-19T02:52:21.000Z,89.93
2023-01-19T02:53:21.000Z,90.03
2023-01-19T02:54:21.000Z,89.82
2023-01-19T02:55:21.000Z,89.82
2023-01-19T02:56:21.000Z,89.82
2023-01-19T02:57:21.000Z,89.82
2023-01-19T02:58:21.000Z,89.97
2023-01-19T02:59:21.000Z,89.97
2023-01-19T03:00:21.000Z,90.18
2023-01-19T03:01:21.000Z,90.28
2023-01-19T03:02:21.000Z,90.39
2023-01-19T03:03:21.000Z,90.70
2023-01-19T03:04:21.000Z,90.96
2023-01-19T03:05:21.000Z,91.06
2023-01-19T03:06:21.000Z,91.06
2023-01-19T03:07:22.000Z,90.96
2023-01-19T03:08:22.000Z,91.06
2023-01-19T03:09:22.000Z,91.17
2023-01-19T03:10:22.000Z,91.49
2023-01-19T03:11:22.000Z,91.70
2023-01-19T03:12:22.000Z,91.70
2023-01-19T03:13:22.000Z,91.59
2023-01-19T03:14:22.000Z,91.59
2023-01-19T03:15:22.000Z,91.70
2023-01-19T03:16:22.000Z,91.70
2023-01-19T03:17:22.000Z,91.70
2023-01-19T03:18:22.000Z,91.59
2023-01-19T03:19:22.000Z,91.38
2023-01-19T03:20:22.000Z,91.38
2023-01-19T03:21:22.000Z,91.28
2023-01-19T03:22:22.000Z,91.28
2023-01-19T03:23:22.000Z,91.28
2023-01-19T03:24:22.000Z,91.38
2023-01-19T03:25:22.000Z,91.38
2023-01-19T03:26:22.000Z,91.49
2023-01-19T03:27:22.000Z,91.59
2023-01-19T03:28:22.000Z,91.59
2023-01-19T03:29:22.000Z,91.74
2023-01-19T03:30:22.000Z,91.59
2023-01-19T03:31:22.000Z,91.59
2023-01-19T03:32:22.000Z,91.49
2023-01-19T03:33:23.000Z,91.38
2023-01-19T03:34:23.000Z,91.38
2023-01-19T03:35:23.000Z,91.38
2023-01-19T03:36:23.000Z,91.38
2023-01-19T03:37:23.000Z,91.59
2023-01-19T03:38:23.000Z,91.70
2023-01-19T03:39:23.000Z,91.59
2023-01-19T03:40:23.000Z,91.70
2023-01-19T03:41:23.000Z,91.70
2023-01-19T03:42:23.000Z,91.59
2023-01-19T03:43:23.000Z,91.59
2023-01-19T03:44:23.000Z,91.59
2023-01-19T03:45:23.000Z,91.59
2023-01-19T03:46:23.000Z,91.59
2023-01-19T03:47:23.000Z,91.70
2023-01-19T03:48:23.000Z,91.28
2023-01-19T03:49:23.000Z,91.02
2023-01-19T03:50:23.000Z,90.70
2023-01-19T03:51:23.000Z,90.50
2023-01-19T03:52:23.000Z,90.39
2023-01-19T03:53:23.000Z,90.39
2023-01-19T03:54:23.000Z,90.28
2023-01-19T03:55:23.000Z,90.28
2023-01-19T03:56:24.000Z,90.50
2023-01-19T03:57:24.000Z,90.50
2023-01-19T03:58:24.000Z,90.39
2023-01-19T03:59:24.000Z,90.50
2023-01-19T04:00:24.000Z,90.50
2023-01-19T04:01:24.000Z,90.54
2023-01-19T04:02:24.000Z,90.85
2023-01-19T04:03:24.000Z,90.75
2023-01-19T04:04:24.000Z,90.85
2023-01-19T04:05:24.000Z,90.85
2023-01-19T04:06:24.000Z,90.64
2023-01-19T04:07:24.000Z,90.54
2023-01-19T04:08:24.000Z,90.75
2023-01-19T04:09:24.000Z,90.85
2023-01-19T04:10:24.000Z,90.89
2023-01-19T04:11:24.000Z,90.89
2023-01-19T04:12:24.000Z,90.89
2023-01-19T04:13:24.000Z,91.11
2023-01-19T04:14:24.000Z,91.11
2023-01-19T04:15:24.000Z,91.11
2023-01-19T04:16:24.000Z,91.00
2023-01-19T04:17:24.000Z,91.00
2023-01-19T04:18:25.000Z,91.11
2023-01-19T04:19:25.000Z,90.79
2023-01-19T04:20:25.000Z,90.69
2023-01-19T04:21:25.000Z,90.43
2023-01-19T04:22:25.000Z,90.33
2023-01-19T04:23:25.000Z,90.33
2023-01-19T04:24:25.000Z,90.22
2023-01-19T04:25:25.000Z,90.16
2023-01-19T04:26:25.000Z,90.05
2023-01-19T04:27:25.000Z,90.26
2023-01-19T04:28:25.000Z,90.37
2023-01-19T04:29:25.000Z,90.37
2023-01-19T04:30:25.000Z,90.58
2023-01-19T04:31:25.000Z,91.00
2023-01-19T04:32:25.000Z,90.89
2023-01-19T04:33:25.000Z,90.89
2023-01-19T04:34:25.000Z,91.00
2023-01-19T04:35:25.000Z,91.00
2023-01-19T04:36:25.000Z,91.11
2023-01-19T04:37:25.000Z,91.21
2023-01-19T04:38:25.000Z,91.21
2023-01-19T04:39:26.000Z,91.11
2023-01-19T04:40:26.000Z,91.00
2023-01-19T04:41:26.000Z,91.21
2023-01-19T04:42:26.000Z,91.11
2023-01-19T04:43:26.000Z,91.00
2023-01-19T04:44:26.000Z,91.21
2023-01-19T04:45:26.000Z,91.63
2023-01-19T04:46:26.000Z,91.74
2023-01-19T04:47:26.000Z,91.63
2023-01-19T04:48:26.000Z,91.63
2023-01-19T04:49:26.000Z,91.89
2023-01-19T04:50:26.000Z,91.89
2023-01-19T04:51:26.000Z,91.99
2023-01-19T04:52:26.000Z,92.10
2023-01-19T04:53:26.000Z,92.41
2023-01-19T04:54:26.000Z,92.41
2023-01-19T04:55:26.000Z,92.20
2023-01-19T04:56:26.000Z,92.41
2023-01-19T04:57:26.000Z,92.31
2023-01-19T04:58:26.000Z,92.41
2023-01-19T04:59:26.000Z,92.52
2023-01-19T05:00:27.000Z,92.63
2023-01-19T05:01:27.000Z,92.73
2023-01-19T05:02:27.000Z,92.94
2023-01-19T05:03:27.000Z,92.83
2023-01-19T05:04:27.000Z,92.83
2023-01-19T05:05:27.000Z,92.94
2023-01-19T05:06:27.000Z,92.90
2023-01-19T05:07:27.000Z,92.73
2023-01-19T05:08:27.000Z,92.63
2023-01-19T05:09:27.000Z,92.48
2023-01-19T05:10:27.000Z,92.27
2023-01-19T05:11:27.000Z,92.27
2023-01-19T05:12:27.000Z,92.37
2023-01-19T05:13:27.000Z,92.48
2023-01-19T05:14:27.000Z,92.58
2023-01-19T05:15:27.000Z,92.37
2023-01-19T05:16:27.000Z,92.48
2023-01-19T05:17:27.000Z,92.37
2023-01-19T05:18:27.000Z,92.48
2023-01-19T05:19:28.000Z,92.58
2023-01-19T05:20:28.000Z,92.58
2023-01-19T05:21:28.000Z,92.48
2023-01-19T05:22:28.000Z,92.37
2023-01-19T05:23:28.000Z,92.37
2023-01-19T05:24:28.000Z,92.22
2023-01-19T05:25:28.000Z,92.22
2023-01-19T05:26:28.000Z,92.02
2023-01-19T05:27:28.000Z,91.80
2023-01-19T05:28:28.000Z,91.70
2023-01-19T05:29:28.000Z,92.02
2023-01-19T05:30:28.000Z,92.02
2023-01-19T05:31:28.000Z,91.91
2023-01-19T05:32:28.000Z,91.80
2023-01-19T05:33:28.000Z,91.70
2023-01-19T05:34:28.000Z,91.80
2023-01-19T05:35:28.000Z,91.91
2023-01-19T05:36:28.000Z,92.12
2023-01-19T05:37:28.000Z,92.12
2023-01-19T05:38:28.000Z,92.12
2023-01-19T05:39:29.000Z,92.22
2023-01-19T05:40:29.000Z,92.33
2023-01-19T05:41:29.000Z,92.33
2023-01-19T05:42:29.000Z,92.33
2023-01-19T05:43:29.000Z,92.44
2023-01-19T05:44:29.000Z,92.48
2023-01-19T05:45:29.000Z,92.76
2023-01-19T05:46:29.000Z,92.79
2023-01-19T05:47:29.000Z,92.79
2023-01-19T05:48:29.000Z,92.79
2023-01-19T05:49:29.000Z,92.96
2023-01-19T05:50:29.000Z,93.11
2023-01-19T05:51:29.000Z,93.18
2023-01-19T05:52:29.000Z,93.22
2023-01-19T05:53:29.000Z,93.22
2023-01-19T05:54:29.000Z,93.11
2023-01-19T05:55:29.000Z,93.11
2023-01-19T05:56:29.000Z,93.22
2023-01-19T05:57:29.000Z,93.22
2023-01-19T05:58:29.000Z,93.54
2023-01-19T05:59:30.000Z,93.54
2023-01-19T06:00:30.000Z,93.64
2023-01-19T06:01:30.000Z,93.64
2023-01-19T06:02:30.000Z,93.54
2023-01-19T06:03:30.000Z,93.54
2023-01-19T06:04:30.000Z,93.64
2023-01-19T06:05:30.000Z,93.85
2023-01-19T06:06:30.000Z,93.85
2023-01-19T06:07:30.000Z,93.74
2023-01-19T06:08:30.000Z,93.64
2023-01-19T06:09:30.000Z,93.54
2023-01-19T06:10:30.000Z,93.60
2023-01-19T06:11:30.000Z,93.60
2023-01-19T06:12:30.000Z,93.43
2023-01-19T06:13:30.000Z,93.32
2023-01-19T06:14:30.000Z,93.32
2023-01-19T06:15:30.000Z,93.43
2023-01-19T06:16:30.000Z,93.60
2023-01-19T06:17:30.000Z,93.60
2023-01-19T06:18:30.000Z,93.60
2023-01-19T06:19:31.000Z,93.49
2023-01-19T06:20:31.000Z,93.49
2023-01-19T06:21:31.000Z,93.38
2023-01-19T06:22:31.000Z,93.49
2023-01-19T06:23:31.000Z,93.28
2023-01-19T06:24:31.000Z,93.07
2023-01-19T06:25:31.000Z,92.86
2023-01-19T06:26:31.000Z,92.96
2023-01-19T06:27:31.000Z,92.96
2023-01-19T06:28:31.000Z,92.86
2023-01-19T06:29:31.000Z,92.96
2023-01-19T06:30:31.000Z,92.96
2023-01-19T06:31:31.000Z,93.18
2023-01-19T06:32:31.000Z,93.18
2023-01-19T06:33:31.000Z,93.18
2023-01-19T06:34:31.000Z,93.28
2023-01-19T06:35:31.000Z,93.38
2023-01-19T06:36:31.000Z,93.49
2023-01-19T06:37:31.000Z,93.70
2023-01-19T06:38:31.000Z,93.80
2023-01-19T06:39:31.000Z,93.80
2023-01-19T06:40:31.000Z,93.80
2023-01-19T06:41:32.000Z,93.70
2023-01-19T06:42:32.000Z,93.60
2023-01-19T06:43:32.000Z,94.02
2023-01-19T06:44:32.000Z,93.91
2023-01-19T06:45:32.000Z,93.91
2023-01-19T06:46:32.000Z,94.12
2023-01-19T06:47:32.000Z,93.91
2023-01-19T06:48:32.000Z,93.80
2023-01-19T06:49:32.000Z,93.66
2023-01-19T06:50:32.000Z,93.55
2023-01-19T06:51:32.000Z,93.45
2023-01-19T06:52:32.000Z,93.24
2023-01-19T06:53:32.000Z,93.34
2023-01-19T06:54:32.000Z,93.45
2023-01-19T06:55:32.000Z,93.34
2023-01-19T06:56:32.000Z,93.45
2023-01-19T06:57:32.000Z,93.45
2023-01-19T06:58:32.000Z,93.45
2023-01-19T06:59:32.000Z,93.34
2023-01-19T07:00:32.000Z,93.13
2023-01-19T07:01:32.000Z,93.13
2023-01-19T07:02:33.000Z,93.03
2023-01-19T07:03:33.000Z,93.13
2023-01-19T07:04:33.000Z,93.13
2023-01-19T07:05:33.000Z,93.13
2023-01-19T07:06:33.000Z,93.13
2023-01-19T07:07:33.000Z,93.13
2023-01-19T07:08:33.000Z,93.13
2023-01-19T07:09:33.000Z,93.13
2023-01-19T07:10:33.000Z,93.24
2023-01-19T07:11:33.000Z,93.34
2023-01-19T07:12:33.000Z,93.45
2023-01-19T07:13:33.000Z,93.45
2023-01-19T07:14:33.000Z,93.34
2023-01-19T07:15:33.000Z,93.34
2023-01-19T07:16:33.000Z,93.34
2023-01-19T07:17:33.000Z,93.45
2023-01-19T07:18:33.000Z,93.55
2023-01-19T07:19:33.000Z,93.66
2023-01-19T07:20:33.000Z,93.55
2023-01-19T07:21:33.000Z,93.30
2023-01-19T07:22:33.000Z,93.19
2023-01-19T07:23:33.000Z,92.99
2023-01-19T07:24:34.000Z,92.88
2023-01-19T07:25:34.000Z,92.77
2023-01-19T07:26:34.000Z,92.67
2023-01-19T07:27:34.000Z,92.57
2023-01-19T07:28:34.000Z,92.67
2023-01-19T07:29:34.000Z,92.57
2023-01-19T07:30:34.000Z,92.67
2023-01-19T07:31:34.000Z,92.73
2023-01-19T07:32:34.000Z,92.77
2023-01-19T07:33:34.000Z,92.57
2023-01-19T07:34:34.000Z,92.46
2023-01-19T07:35:34.000Z,92.31
2023-01-19T07:36:34.000Z,92.41
2023-01-19T07:37:34.000Z,92.31
2023-01-19T07:38:34.000Z,92.31
2023-01-19T07:39:34.000Z,92.41
2023-01-19T07:40:34.000Z,92.41
2023-01-19T07:41:34.000Z,92.41
2023-01-19T07:42:34.000Z,92.31
2023-01-19T07:43:34.000Z,92.21
2023-01-19T07:44:34.000Z,92.21
2023-01-19T07:45:34.000Z,92.31
2023-01-19T07:46:35.000Z,92.52
2023-01-19T07:47:35.000Z,92.73
2023-01-19T07:48:35.000Z,92.84
2023-01-19T07:49:35.000Z,92.73
2023-01-19T07:50:35.000Z,92.73
2023-01-19T07:51:35.000Z,92.84
2023-01-19T07:52:35.000Z,92.84
2023-01-19T07:53:35.000Z,92.94
2023-01-19T07:54:35.000Z,92.94
2023-01-19T07:55:35.000Z,92.94
2023-01-19T07:56:35.000Z,92.94
2023-01-19T07:57:35.000Z,93.15
2023-01-19T07:58:35.000Z,93.26
2023-01-19T07:59:35.000Z,93.37
2023-01-19T08:00:35.000Z,93.15
2023-01-19T08:01:35.000Z,93.05
2023-01-19T08:02:35.000Z,92.94
2023-01-19T08:03:35.000Z,92.84
2023-01-19T08:04:35.000Z,92.94
2023-01-19T08:05:35.000Z,92.84
2023-01-19T08:06:35.000Z,92.94
2023-01-19T08:07:35.000Z,92.94
2023-01-19T08:08:35.000Z,92.84
2023-01-19T08:09:36.000Z,92.73
2023-01-19T08:10:36.000Z,92.73
2023-01-19T08:11:36.000Z,92.73
2023-01-19T08:12:36.000Z,92.63
2023-01-19T08:13:36.000Z,92.63
2023-01-19T08:14:36.000Z,92.52
2023-01-19T08:15:36.000Z,92.48
2023-01-19T08:16:36.000Z,92.48
2023-01-19T08:17:36.000Z,92.27
2023-01-19T08:18:36.000Z,92.06
2023-01-19T08:19:36.000Z,92.06
2023-01-19T08:20:36.000Z,92.06
2023-01-19T08:21:36.000Z,92.06
2023-01-19T08:22:36.000Z,92.06
2023-01-19T08:23:36.000Z,92.06
2023-01-19T08:24:36.000Z,92.06
2023-01-19T08:25:36.000Z,91.96
2023-01-19T08:26:36.000Z,92.06
2023-01-19T08:27:36.000Z,91.91
2023-01-19T08:28:36.000Z,91.96
2023-01-19T08:29:36.000Z,91.81
2023-01-19T08:30:36.000Z,91.81
2023-01-19T08:31:36.000Z,91.81
2023-01-19T08:32:36.000Z,91.81
2023-01-19T08:33:36.000Z,91.91
2023-01-19T08:34:36.000Z,91.60
2023-01-19T08:35:36.000Z,91.28
2023-01-19T08:36:37.000Z,91.24
2023-01-19T08:37:37.000Z,91.45
2023-01-19T08:38:37.000Z,91.35
2023-01-19T08:39:37.000Z,91.45
2023-01-19T08:40:37.000Z,91.13
2023-01-19T08:41:37.000Z,90.92
2023-01-19T08:42:37.000Z,90.82
2023-01-19T08:43:37.000Z,90.67
2023-01-19T08:44:37.000Z,90.78
2023-01-19T08:45:37.000Z,90.78
2023-01-19T08:46:37.000Z,90.67
2023-01-19T08:47:37.000Z,90.78
2023-01-19T08:48:37.000Z,90.56
2023-01-19T08:49:37.000Z,90.25
2023-01-19T08:50:37.000Z,90.04
2023-01-19T08:51:37.000Z,89.89
2023-01-19T08:52:37.000Z,89.89
2023-01-19T08:53:37.000Z,89.89
2023-01-19T08:54:37.000Z,89.89
2023-01-19T08:55:37.000Z,90.00
2023-01-19T08:56:37.000Z,89.58
2023-01-19T08:57:37.000Z,89.37
2023-01-19T08:58:37.000Z,89.37
2023-01-19T08:59:37.000Z,89.37
2023-01-19T09:00:37.000Z,89.32
2023-01-19T09:01:37.000Z,89.22
2023-01-19T09:02:37.000Z,89.32
2023-01-19T09:03:37.000Z,89.12
2023-01-19T09:04:37.000Z,89.22
2023-01-19T09:05:38.000Z,89.32
2023-01-19T09:06:38.000Z,89.54
2023-01-19T09:07:38.000Z,89.43
2023-01-19T09:08:38.000Z,89.43
2023-01-19T09:09:38.000Z,89.54
2023-01-19T09:10:38.000Z,89.29
2023-01-19T09:11:38.000Z,88.97
2023-01-19T09:12:38.000Z,88.87
2023-01-19T09:13:38.000Z,88.66
2023-01-19T09:14:38.000Z,88.97
2023-01-19T09:15:38.000Z,88.76
2023-01-19T09:16:38.000Z,88.76
2023-01-19T09:17:38.000Z,88.76
2023-01-19T09:18:38.000Z,88.55
2023-01-19T09:19:38.000Z,88.41
2023-01-19T09:20:38.000Z,88.20
2023-01-19T09:21:38.000Z,88.41
2023-01-19T09:22:38.000Z,87.99
2023-01-19T09:23:38.000Z,88.09
2023-01-19T09:24:38.000Z,87.88
2023-01-19T09:25:38.000Z,88.09
2023-01-19T09:26:38.000Z,88.62
2023-01-19T09:27:38.000Z,88.37
2023-01-19T09:28:38.000Z,87.74
2023-01-19T09:29:38.000Z,87.52
2023-01-19T09:30:38.000Z,87.63
2023-01-19T09:31:38.000Z,87.52
2023-01-19T09:32:38.000Z,87.42
2023-01-19T09:33:38.000Z,87.63
2023-01-19T09:34:38.000Z,87.42
2023-01-19T09:35:38.000Z,87.63
2023-01-19T09:36:38.000Z,87.42
2023-01-19T09:37:38.000Z,87.28
2023-01-19T09:38:38.000Z,87.38
2023-01-19T09:39:38.000Z,87.28
2023-01-19T09:40:39.000Z,87.17
2023-01-19T09:41:39.000Z,87.17
2023-01-19T09:42:39.000Z,86.96
2023-01-19T09:43:39.000Z,87.07
2023-01-19T09:44:39.000Z,86.65
2023-01-19T09:45:39.000Z,86.96
2023-01-19T09:46:39.000Z,87.07
2023-01-19T09:47:39.000Z,86.65
2023-01-19T09:48:39.000Z,86.76
2023-01-19T09:49:39.000Z,86.71
2023-01-19T09:50:39.000Z,86.51
2023-01-19T09:51:39.000Z,86.71
2023-01-19T09:52:39.000Z,86.61
2023-01-19T09:53:39.000Z,86.61
2023-01-19T09:54:39.000Z,86.51
2023-01-19T09:55:39.000Z,86.51
2023-01-19T09:56:39.000Z,86.40
2023-01-19T09:57:39.000Z,86.40
2023-01-19T09:58:39.000Z,85.77
2023-01-19T09:59:39.000Z,85.77
2023-01-19T10:00:39.000Z,86.19
2023-01-19T10:01:39.000Z,86.40
2023-01-19T10:02:39.000Z,86.82
2023-01-19T10:03:39.000Z,86.25
2023-01-19T10:04:39.000Z,86.36
2023-01-19T10:05:39.000Z,86.36
2023-01-19T10:06:39.000Z,86.25
2023-01-19T10:07:39.000Z,86.05
2023-01-19T10:08:39.000Z,86.05
2023-01-19T10:09:39.000Z,85.94
2023-01-19T10:10:39.000Z,86.57
2023-01-19T10:11:39.000Z,86.36
2023-01-19T10:12:39.000Z,86.36
2023-01-19T10:13:39.000Z,86.88
2023-01-19T10:14:39.000Z,87.09
2023-01-19T10:15:39.000Z,86.15
2023-01-19T10:16:39.000Z,86.25
2023-01-19T10:17:39.000Z,85.94
2023-01-19T10:18:39.000Z,86.22
2023-01-19T10:19:39.000Z,86.00
2023-01-19T10:20:39.000Z,85.59
2023-01-19T10:21:39.000Z,85.69
2023-01-19T10:22:39.000Z,85.80
2023-01-19T10:23:39.000Z,85.59
2023-01-19T10:24:39.000Z,85.69
2023-01-19T10:25:39.000Z,86.11
2023-01-19T10:26:39.000Z,86.43
2023-01-19T10:27:39.000Z,85.90
2023-01-19T10:28:39.000Z,86.00
2023-01-19T10:29:39.000Z,85.69
2023-01-19T10:30:39.000Z,85.38
2023-01-19T10:31:39.000Z,85.90
2023-01-19T10:32:39.000Z,85.69
2023-01-19T10:33:39.000Z,85.65
2023-01-19T10:34:39.000Z,85.17
2023-01-19T10:35:39.000Z,85.65
2023-01-19T10:36:39.000Z,85.44
2023-01-19T10:37:39.000Z,85.24
2023-01-19T10:38:39.000Z,85.13
2023-01-19T10:39:39.000Z,85.44
2023-01-19T10:40:39.000Z,85.75
2023-01-19T10:41:39.000Z,86.49
2023-01-19T10:42:39.000Z,86.28
2023-01-19T10:43:39.000Z,86.28
2023-01-19T10:44:39.000Z,85.97
2023-01-19T10:45:39.000Z,85.19
2023-01-19T10:46:39.000Z,85.30
2023-01-19T10:47:39.000Z,85.30
2023-01-19T10:48:39.000Z,84.78
2023-01-19T10:49:39.000Z,84.56
2023-01-19T10:50:39.000Z,84.46
2023-01-19T10:51:39.000Z,84.88
2023-01-19T10:52:39.000Z,84.78
2023-01-19T10:53:39.000Z,84.63
2023-01-19T10:54:39.000Z,83.90
2023-01-19T10:55:39.000Z,84.00
2023-01-19T10:56:39.000Z,84.00
2023-01-19T10:57:39.000Z,83.80
2023-01-19T10:58:39.000Z,83.69
2023-01-19T10:59:39.000Z,83.59
2023-01-19T11:00:39.000Z,83.69
2023-01-19T11:01:39.000Z,84.17
2023-01-19T11:02:39.000Z,83.65
2023-01-19T11:03:39.000Z,83.34
2023-01-19T11:04:39.000Z,83.23
2023-01-19T11:05:39.000Z,83.13
2023-01-19T11:06:39.000Z,83.34
2023-01-19T11:07:39.000Z,83.34
2023-01-19T11:08:39.000Z,82.71
2023-01-19T11:09:40.000Z,83.03
2023-01-19T11:10:40.000Z,83.23
2023-01-19T11:11:40.000Z,83.34
2023-01-19T11:12:40.000Z,83.23
2023-01-19T11:13:40.000Z,83.23
2023-01-19T11:14:40.000Z,83.23
2023-01-19T11:15:40.000Z,83.23
2023-01-19T11:16:40.000Z,83.13
2023-01-19T11:17:40.000Z,82.99
2023-01-19T11:18:40.000Z,83.09
2023-01-19T11:19:40.000Z,82.57
2023-01-19T11:20:40.000Z,82.67
2023-01-19T11:21:40.000Z,82.99
2023-01-19T11:22:40.000Z,82.89
2023-01-19T11:23:40.000Z,82.99
2023-01-19T11:24:40.000Z,82.67
2023-01-19T11:25:40.000Z,82.36
2023-01-19T11:26:40.000Z,82.36
2023-01-19T11:27:40.000Z,82.46
2023-01-19T11:28:40.000Z,82.46
2023-01-19T11:29:40.000Z,83.09
2023-01-19T11:30:40.000Z,82.89
2023-01-19T11:31:40.000Z,82.67
2023-01-19T11:32:40.000Z,82.57
2023-01-19T11:33:40.000Z,82.26
2023-01-19T11:34:40.000Z,82.99
2023-01-19T11:35:40.000Z,82.67
2023-01-19T11:36:40.000Z,82.46
2023-01-19T11:37:40.000Z,82.67
2023-01-19T11:38:40.000Z,82.84
2023-01-19T11:39:40.000Z,82.57
2023-01-19T11:40:40.000Z,82.84
2023-01-19T11:41:40.000Z,82.74
2023-01-19T11:42:40.000Z,83.16
2023-01-19T11:43:40.000Z,82.95
2023-01-19T11:44:40.000Z,82.64
2023-01-19T11:45:40.000Z,82.74
2023-01-19T11:46:40.000Z,82.43
2023-01-19T11:47:40.000Z,82.53
2023-01-19T11:48:40.000Z,82.64
2023-01-19T11:49:40.000Z,82.53
2023-01-19T11:50:40.000Z,82.07
2023-01-19T11:51:40.000Z,82.07
2023-01-19T11:52:40.000Z,82.29
2023-01-19T11:53:40.000Z,81.87
2023-01-19T11:54:40.000Z,82.07
2023-01-19T11:55:40.000Z,81.76
2023-01-19T11:56:40.000Z,81.35
2023-01-19T11:57:40.000Z,81.13
2023-01-19T11:58:40.000Z,81.24
2023-01-19T11:59:40.000Z,81.97
2023-01-19T12:00:40.000Z,82.18
2023-01-19T12:01:40.000Z,81.87
2023-01-19T12:02:40.000Z,81.66
2023-01-19T12:03:40.000Z,81.35
2023-01-19T12:04:40.000Z,81.45
2023-01-19T12:05:40.000Z,81.45
2023-01-19T12:06:40.000Z,81.52
2023-01-19T12:07:40.000Z,80.89
2023-01-19T12:08:40.000Z,80.99
2023-01-19T12:09:40.000Z,81.41
2023-01-19T12:10:40.000Z,81.21
2023-01-19T12:11:40.000Z,81.52
2023-01-19T12:12:40.000Z,81.52
2023-01-19T12:13:40.000Z,81.21
2023-01-19T12:14:40.000Z,81.21
2023-01-19T12:15:40.000Z,80.79
2023-01-19T12:16:40.000Z,80.58
2023-01-19T12:17:40.000Z,81.73
2023-01-19T12:18:40.000Z,81.31
2023-01-19T12:19:40.000Z,81.52
2023-01-19T12:20:40.000Z,81.21
2023-01-19T12:21:40.000Z,80.68
2023-01-19T12:22:40.000Z,80.99
2023-01-19T12:23:40.000Z,80.89
2023-01-19T12:24:40.000Z,79.95
2023-01-19T12:25:40.000Z,79.95
2023-01-19T12:26:40.000Z,80.05
2023-01-19T12:27:40.000Z,80.27
2023-01-19T12:28:40.000Z,80.89
2023-01-19T12:29:40.000Z,80.58
2023-01-19T12:30:40.000Z,80.79
2023-01-19T12:31:40.000Z,81.10
2023-01-19T12:32:40.000Z,80.79
2023-01-19T12:33:39.000Z,80.79
2023-01-19T12:34:39.000Z,80.27
2023-01-19T12:35:39.000Z,80.16
2023-01-19T12:36:39.000Z,80.37
2023-01-19T12:37:39.000Z,80.68
2023-01-19T12:38:39.000Z,80.89
2023-01-19T12:39:39.000Z,80.47
2023-01-19T12:40:39.000Z,80.05
2023-01-19T12:41:39.000Z,79.95
2023-01-19T12:42:39.000Z,80.89
2023-01-19T12:43:39.000Z,81.06
2023-01-19T12:44:39.000Z,80.58
2023-01-19T12:45:39.000Z,80.89
2023-01-19T12:46:39.000Z,80.58
2023-01-19T12:47:39.000Z,81.21
2023-01-19T12:48:39.000Z,81.41
2023-01-19T12:49:39.000Z,80.47
2023-01-19T12:50:39.000Z,80.58
2023-01-19T12:51:39.000Z,80.89
2023-01-19T12:52:39.000Z,80.89